Time;durP1;ratioP1;P1;durP2;ratioP2;P2;SDS_P1;SDS_P2;PMS_P1;PMS_P2;Temp;Humidity;BMP_temperature;BMP_pressure;BME280_temperature;BME280_humidity;BME280_pressure;Samples;Min_cycle;Max_cycle;Signal;HPM_P1;HPM_P2
2022/01/04 00:01:15;;;;;;;33.35;18.33;;;4.20;99.90;;;;;;5115556;28;20420;-76
2022/01/04 00:03:41;;;;;;;34.15;17.90;;;4.30;99.90;;;;;;5115165;28;20032;-76
2022/01/04 00:06:08;;;;;;;23.08;15.48;;;4.20;99.90;;;;;;5115358;28;20034;-76
2022/01/04 00:08:34;;;;;;;23.67;15.43;;;4.30;99.90;;;;;;5115682;28;20032;-76
2022/01/04 00:11:09;;;;;;;25.33;15.52;;;4.20;99.90;;;;;;5115211;28;20040;-76
2022/01/04 00:13:35;;;;;;;25.67;16.05;;;4.20;99.90;;;;;;5115449;28;20046;-75
2022/01/04 00:16:03;;;;;;;24.45;16.20;;;4.10;99.90;;;;;;5115776;28;20455;-76
2022/01/04 00:18:29;;;;;;;23.50;14.93;;;4.20;99.90;;;;;;5115202;28;20054;-76
2022/01/04 00:20:55;;;;;;;25.58;17.50;;;4.20;99.90;;;;;;5115268;28;20035;-75
2022/01/04 00:23:21;;;;;;;20.88;15.00;;;4.20;99.90;;;;;;5115511;28;20032;-75
2022/01/04 00:25:47;;;;;;;21.95;12.73;;;4.20;99.90;;;;;;5115185;28;20165;-75
2022/01/04 00:28:13;;;;;;;27.98;13.90;;;4.10;99.90;;;;;;5115233;28;20059;-75
2022/01/04 00:30:40;;;;;;;17.85;12.57;;;4.10;99.90;;;;;;5115372;28;20125;-75
2022/01/04 00:33:09;;;;;;;16.20;11.50;;;4.10;99.90;;;;;;5115002;28;20033;-75
2022/01/04 00:35:35;;;;;;;24.52;15.70;;;4.10;99.90;;;;;;5114833;28;20031;-75
2022/01/04 00:38:01;;;;;;;22.52;15.32;;;4.10;99.90;;;;;;5115427;28;20028;-75
2022/01/04 00:40:27;;;;;;;18.90;14.07;;;4.00;99.90;;;;;;5114846;28;20039;-75
2022/01/04 00:42:58;;;;;;;21.77;15.23;;;4.00;99.90;;;;;;5115085;28;20114;-75
2022/01/04 00:45:31;;;;;;;17.88;12.50;;;4.00;99.90;;;;;;5115409;28;20102;-75
2022/01/04 00:50:23;;;;;;;19.70;12.98;;;4.00;99.90;;;;;;5115256;28;20508;-75
2022/01/04 00:52:50;;;;;;;26.55;15.93;;;4.00;99.90;;;;;;5115297;28;20039;-75
2022/01/04 00:55:16;;;;;;;25.75;17.42;;;4.00;99.90;;;;;;5118974;28;20038;-75
2022/01/04 00:57:42;;;;;;;34.63;21.40;;;4.10;99.90;;;;;;5118564;28;20077;-75
2022/01/04 01:00:10;;;;;;;26.80;18.48;;;4.10;99.90;;;;;;5118949;28;20028;-75
2022/01/04 01:02:37;;;;;;;37.25;21.58;;;4.10;99.90;;;;;;5118350;28;20039;-75
2022/01/04 01:05:03;;;;;;;33.03;20.15;;;4.10;99.90;;;;;;5118509;28;20092;-75
2022/01/04 01:07:29;;;;;;;20.38;12.43;;;4.10;99.90;;;;;;5118347;28;20028;-75
2022/01/04 01:12:23;;;;;;;29.80;19.98;;;3.90;99.90;;;;;;5118003;28;20039;-75
2022/01/04 01:14:49;;;;;;;25.58;15.48;;;3.80;99.90;;;;;;5118595;28;20042;-75
2022/01/04 01:17:15;;;;;;;24.65;13.55;;;3.80;99.90;;;;;;5118258;28;20039;-75
2022/01/04 01:19:41;;;;;;;18.20;12.32;;;3.80;99.90;;;;;;5117839;28;20042;-75
2022/01/04 01:22:06;;;;;;;23.13;13.65;;;3.80;99.90;;;;;;5118201;28;20077;-75
2022/01/04 01:24:32;;;;;;;22.70;15.70;;;3.70;99.90;;;;;;5118150;28;20058;-75
2022/01/04 01:26:58;;;;;;;25.52;16.75;;;3.70;99.90;;;;;;5117805;28;20374;-76
2022/01/04 01:29:24;;;;;;;24.40;15.18;;;3.70;99.90;;;;;;5118596;28;20093;-75
2022/01/04 01:31:49;;;;;;;26.52;13.70;;;3.70;99.90;;;;;;5117926;28;20035;-75
2022/01/04 01:34:15;;;;;;;19.27;13.40;;;3.80;99.90;;;;;;5117502;28;20485;-75
2022/01/04 01:36:41;;;;;;;21.05;13.32;;;3.80;99.90;;;;;;5117633;28;20066;-75
2022/01/04 01:39:08;;;;;;;21.55;13.80;;;3.80;99.90;;;;;;5118199;28;20039;-75
2022/01/04 01:41:33;;;;;;;23.05;14.00;;;3.70;99.90;;;;;;5117764;28;20028;-75
2022/01/04 01:43:59;;;;;;;18.25;11.35;;;3.70;99.90;;;;;;5117467;28;20127;-75
2022/01/04 01:46:25;;;;;;;19.38;12.20;;;3.70;99.90;;;;;;5117729;28;20110;-75
2022/01/04 01:48:51;;;;;;;19.40;10.88;;;3.80;99.90;;;;;;5117462;28;20374;-75
2022/01/04 01:51:17;;;;;;;14.25;9.73;;;3.60;99.90;;;;;;5117450;28;20040;-75
2022/01/04 01:53:45;;;;;;;20.42;11.68;;;3.70;99.90;;;;;;5117700;28;20036;-75
2022/01/04 01:56:11;;;;;;;20.88;12.57;;;3.60;99.90;;;;;;5117622;28;20038;-75
2022/01/04 01:58:37;;;;;;;22.02;13.88;;;3.60;99.90;;;;;;5117817;28;20036;-76
2022/01/04 02:01:03;;;;;;;21.10;12.05;;;3.50;99.90;;;;;;5117087;28;20035;-75
2022/01/04 02:03:29;;;;;;;18.50;13.13;;;3.50;99.90;;;;;;5117083;28;20028;-75
2022/01/04 02:05:55;;;;;;;21.45;11.60;;;3.50;99.90;;;;;;5117041;28;20044;-75
2022/01/04 02:08:21;;;;;;;19.38;13.30;;;3.40;99.90;;;;;;5117305;28;20478;-75
2022/01/04 02:10:48;;;;;;;21.35;12.38;;;3.40;99.90;;;;;;5098633;28;20043;-75
2022/01/04 02:13:13;;;;;;;23.13;15.98;;;3.40;99.90;;;;;;5117491;28;20036;-75
2022/01/04 02:15:39;;;;;;;17.92;11.45;;;3.40;99.90;;;;;;5117374;28;20339;-75
2022/01/04 02:18:06;;;;;;;19.63;12.15;;;3.40;99.90;;;;;;5117242;28;20366;-76
2022/01/04 02:20:31;;;;;;;21.38;13.23;;;3.30;99.90;;;;;;5117392;28;20140;-75
2022/01/04 02:22:57;;;;;;;16.23;9.85;;;3.40;99.90;;;;;;5117277;28;20485;-75
2022/01/04 02:25:23;;;;;;;21.02;15.10;;;3.30;99.90;;;;;;5117370;28;20120;-75
2022/01/04 02:27:51;;;;;;;25.88;15.30;;;3.30;99.90;;;;;;5117110;28;20027;-75
2022/01/04 02:30:19;;;;;;;17.60;11.98;;;3.30;99.90;;;;;;5117480;28;20127;-75
2022/01/04 02:32:47;;;;;;;22.55;16.98;;;3.40;99.90;;;;;;5116418;28;20042;-76
2022/01/04 02:35:15;;;;;;;29.17;22.13;;;3.40;99.90;;;;;;5116928;28;20081;-75
2022/01/04 02:37:41;;;;;;;23.70;15.05;;;3.50;99.90;;;;;;5116663;28;20058;-75
2022/01/04 02:40:07;;;;;;;15.25;11.25;;;3.50;99.90;;;;;;5116593;28;20044;-75
2022/01/04 02:42:33;;;;;;;14.75;10.88;;;3.40;99.90;;;;;;5116603;28;20039;-75
2022/01/04 02:45:00;;;;;;;20.08;12.40;;;3.40;99.90;;;;;;5116867;28;20023;-75
2022/01/04 02:47:28;;;;;;;17.42;10.60;;;3.30;99.90;;;;;;5116678;28;20023;-75
2022/01/04 02:49:54;;;;;;;14.35;8.68;;;3.30;99.90;;;;;;5116288;28;20028;-75
2022/01/04 02:52:20;;;;;;;23.40;14.18;;;3.30;99.90;;;;;;5116334;28;20039;-75
2022/01/04 02:54:46;;;;;;;18.38;12.38;;;3.20;99.90;;;;;;5116769;28;20083;-75
2022/01/04 02:57:12;;;;;;;14.52;11.07;;;3.20;99.90;;;;;;5116532;28;20031;-75
2022/01/04 02:59:38;;;;;;;18.35;11.02;;;3.20;99.90;;;;;;5117205;28;20429;-76
2022/01/04 03:02:05;;;;;;;18.13;11.23;;;3.20;99.90;;;;;;5116249;28;20031;-75
2022/01/04 03:04:31;;;;;;;20.40;11.65;;;3.30;99.90;;;;;;5115912;28;20027;-76
2022/01/04 03:06:57;;;;;;;20.88;13.63;;;3.10;99.90;;;;;;5116434;28;20599;-76
2022/01/04 03:09:23;;;;;;;16.50;11.63;;;3.10;99.90;;;;;;5116419;28;20032;-76
2022/01/04 03:11:49;;;;;;;18.50;11.45;;;3.10;99.90;;;;;;5116308;28;20128;-75
2022/01/04 03:14:15;;;;;;;17.77;10.75;;;3.00;99.90;;;;;;5116297;28;20039;-76
2022/01/04 03:16:41;;;;;;;12.93;9.30;;;3.10;99.90;;;;;;5115387;28;20031;-76
2022/01/04 03:19:07;;;;;;;17.33;9.10;;;3.10;99.90;;;;;;5115868;28;20365;-75
2022/01/04 03:21:34;;;;;;;18.38;11.45;;;3.10;99.90;;;;;;5116434;28;20377;-75
2022/01/04 03:24:01;;;;;;;16.33;9.90;;;3.00;99.90;;;;;;5116078;28;20038;-75
2022/01/04 03:26:27;;;;;;;15.00;9.20;;;2.90;99.90;;;;;;5115973;28;20085;-75
2022/01/04 03:28:53;;;;;;;11.23;7.53;;;3.00;99.90;;;;;;5115914;28;20035;-75
2022/01/04 03:31:19;;;;;;;10.80;7.85;;;3.00;99.90;;;;;;5115817;28;20040;-75
2022/01/04 03:33:45;;;;;;;10.43;7.30;;;3.00;99.90;;;;;;5115769;28;20019;-76
2022/01/04 03:36:11;;;;;;;14.57;8.18;;;2.90;99.90;;;;;;5116092;28;20077;-76
2022/01/04 03:38:37;;;;;;;16.77;10.07;;;3.00;99.90;;;;;;5115529;28;20024;-76
2022/01/04 03:41:02;;;;;;;13.40;8.27;;;3.00;99.90;;;;;;5115817;28;20078;-75
2022/01/04 03:43:29;;;;;;;14.63;7.78;;;3.00;99.90;;;;;;5115662;28;20110;-75
2022/01/04 03:45:55;;;;;;;12.00;6.50;;;2.90;99.90;;;;;;5115637;28;20061;-75
2022/01/04 03:48:23;;;;;;;16.02;10.10;;;2.90;99.90;;;;;;5115275;28;20058;-75
2022/01/04 03:50:48;;;;;;;15.25;11.20;;;2.90;99.90;;;;;;5115509;28;20042;-75
2022/01/04 03:53:14;;;;;;;15.18;9.57;;;2.80;99.90;;;;;;5115337;28;20031;-75
2022/01/04 03:55:40;;;;;;;17.42;10.15;;;2.80;99.90;;;;;;5115526;28;20126;-75
2022/01/04 03:58:06;;;;;;;13.60;8.60;;;2.80;99.90;;;;;;5115839;28;20089;-76
2022/01/04 04:00:32;;;;;;;13.32;7.30;;;2.90;99.90;;;;;;5115294;28;20032;-76
2022/01/04 04:02:58;;;;;;;8.82;6.70;;;2.90;99.90;;;;;;5115455;28;20038;-75
2022/01/04 04:05:23;;;;;;;11.05;7.60;;;2.90;99.90;;;;;;5115721;28;20374;-75
2022/01/04 04:07:49;;;;;;;14.68;7.95;;;2.90;99.90;;;;;;5115410;28;20031;-75
2022/01/04 04:10:15;;;;;;;11.45;6.50;;;2.90;99.90;;;;;;5115341;28;20122;-75
2022/01/04 04:12:41;;;;;;;11.23;7.57;;;3.00;99.90;;;;;;5115104;28;20482;-75
2022/01/04 04:15:08;;;;;;;13.35;7.45;;;3.00;99.90;;;;;;5115080;28;20066;-75
2022/01/04 04:17:35;;;;;;;8.13;6.07;;;3.10;99.90;;;;;;5114540;28;20118;-76
2022/01/04 04:20:03;;;;;;;8.43;5.20;;;3.10;99.90;;;;;;5114989;28;20543;-75
2022/01/04 04:22:29;;;;;;;11.02;5.50;;;3.10;99.90;;;;;;5114937;28;20035;-75
2022/01/04 04:24:55;;;;;;;10.38;7.63;;;3.10;99.90;;;;;;5115254;28;20382;-75
2022/01/04 04:27:20;;;;;;;14.40;8.98;;;3.10;99.90;;;;;;5116194;28;20028;-76
2022/01/04 04:29:46;;;;;;;13.35;7.97;;;3.10;99.90;;;;;;5118900;28;20076;-76
2022/01/04 04:32:12;;;;;;;11.80;7.15;;;3.10;99.90;;;;;;5119071;28;20044;-75
2022/01/04 04:34:38;;;;;;;15.13;7.18;;;3.10;99.90;;;;;;5118850;28;20040;-76
2022/01/04 04:37:05;;;;;;;14.48;7.20;;;3.10;99.90;;;;;;5118747;28;20035;-75
2022/01/04 04:39:31;;;;;;;13.27;5.97;;;3.20;99.90;;;;;;5119326;28;20035;-75
2022/01/04 04:41:56;;;;;;;16.13;7.78;;;3.30;99.90;;;;;;5118959;28;20042;-76
2022/01/04 04:44:22;;;;;;;19.80;6.45;;;3.20;99.90;;;;;;5118643;28;20428;-75
2022/01/04 04:46:49;;;;;;;20.08;6.60;;;3.20;99.90;;;;;;5100672;28;20030;-76
2022/01/04 04:49:16;;;;;;;27.23;7.05;;;3.10;99.90;;;;;;5118780;28;20039;-76
2022/01/04 04:51:42;;;;;;;20.13;7.28;;;3.10;99.90;;;;;;5118386;28;20039;-76
2022/01/04 04:54:08;;;;;;;26.35;9.60;;;3.10;99.90;;;;;;5118736;28;20351;-76
2022/01/04 04:56:38;;;;;;;20.48;7.80;;;3.20;99.90;;;;;;5118377;28;20062;-76
2022/01/04 04:59:08;;;;;;;49.33;8.88;;;3.30;99.90;;;;;;5118832;28;20039;-76
2022/01/04 05:01:35;;;;;;;39.70;8.23;;;3.30;99.90;;;;;;5118867;28;20032;-76
2022/01/04 05:04:00;;;;;;;36.33;8.00;;;3.30;99.90;;;;;;5118617;28;20245;-76
2022/01/04 05:06:26;;;;;;;18.90;7.68;;;3.20;99.90;;;;;;5118381;28;20362;-75
2022/01/04 05:08:52;;;;;;;24.88;7.10;;;3.20;99.90;;;;;;5118633;28;20122;-75
2022/01/04 05:11:19;;;;;;;50.35;10.13;;;3.30;99.90;;;;;;5118451;28;20128;-75
2022/01/04 05:13:44;;;;;;;26.80;8.77;;;3.20;99.90;;;;;;5118597;28;20031;-75
2022/01/04 05:16:11;;;;;;;39.28;9.82;;;3.30;99.90;;;;;;5119030;28;20370;-74
2022/01/04 05:18:37;;;;;;;28.88;9.00;;;3.30;99.90;;;;;;5121199;27;20035;-75
2022/01/04 05:21:03;;;;;;;48.63;9.10;;;3.40;99.90;;;;;;5122775;27;20049;-75
2022/01/04 05:23:32;;;;;;;17.50;7.38;;;3.40;99.90;;;;;;5138025;27;20054;-75
2022/01/04 05:25:58;;;;;;;15.18;6.75;;;3.40;99.90;;;;;;5138989;27;20069;-75
2022/01/04 05:28:24;;;;;;;13.70;5.35;;;3.40;99.90;;;;;;5122912;27;20503;-75
2022/01/04 05:30:50;;;;;;;16.48;5.40;;;3.40;99.90;;;;;;5118856;28;20441;-75
2022/01/04 05:33:16;;;;;;;14.93;6.28;;;3.40;99.90;;;;;;5117710;28;20031;-77
2022/01/04 05:35:42;;;;;;;33.10;10.13;;;3.40;99.90;;;;;;5117888;28;20031;-75
2022/01/04 05:38:08;;;;;;;47.88;11.20;;;3.30;99.90;;;;;;5127626;27;20039;-75
2022/01/04 05:40:34;;;;;;;47.63;12.38;;;3.20;99.90;;;;;;5116129;28;20035;-76
2022/01/04 05:43:00;;;;;;;23.05;10.43;;;3.10;99.90;;;;;;5115922;28;20039;-76
2022/01/04 05:45:26;;;;;;;26.90;10.80;;;3.20;99.90;;;;;;5115977;28;20558;-76
2022/01/04 05:47:52;;;;;;;57.67;12.73;;;3.20;99.90;;;;;;5117517;28;20126;-79
2022/01/04 05:50:18;;;;;;;30.52;10.02;;;3.20;99.90;;;;;;5117493;28;20035;-75
2022/01/04 05:52:44;;;;;;;219.18;12.77;;;3.20;99.90;;;;;;5121267;27;20039;-76
2022/01/04 05:55:10;;;;;;;73.15;9.07;;;3.20;99.90;;;;;;5137636;27;20460;-76
2022/01/04 05:57:36;;;;;;;36.22;10.25;;;3.10;99.90;;;;;;5138002;27;20039;-76
2022/01/04 06:00:05;;;;;;;37.17;7.85;;;3.10;99.90;;;;;;5137824;27;20494;-76
2022/01/04 06:02:30;;;;;;;220.63;16.38;;;3.20;99.90;;;;;;5137688;27;20377;-76
2022/01/04 06:04:56;;;;;;;88.18;9.77;;;3.10;99.90;;;;;;5133522;27;20031;-76
2022/01/04 06:07:22;;;;;;;34.97;9.30;;;3.20;99.90;;;;;;5137811;27;20517;-76
2022/01/04 06:09:51;;;;;;;33.67;8.98;;;3.20;99.90;;;;;;5138028;27;20350;-76
2022/01/04 06:14:59;;;;;;;25.58;8.02;;;3.40;99.90;;;;;;5138079;27;20459;-76
2022/01/04 06:17:30;;;;;;;17.10;6.32;;;3.30;99.90;;;;;;5137497;27;20027;-76
2022/01/04 06:19:58;;;;;;;45.53;7.30;;;3.40;99.90;;;;;;5137504;27;20045;-76
2022/01/04 06:22:26;;;;;;;23.35;6.32;;;3.40;99.90;;;;;;5137560;27;20516;-76
2022/01/04 06:24:52;;;;;;;17.25;6.72;;;3.40;99.90;;;;;;5137552;27;20035;-76
2022/01/04 06:27:19;;;;;;;19.75;7.13;;;3.40;99.90;;;;;;5137230;27;20093;-76
2022/01/04 06:29:45;;;;;;;17.83;6.30;;;3.40;99.90;;;;;;5137770;27;20039;-76
2022/01/04 06:32:11;;;;;;;21.58;6.28;;;3.60;99.90;;;;;;5136978;27;20473;-76
2022/01/04 06:34:39;;;;;;;8.18;5.28;;;3.60;99.90;;;;;;5136899;27;20058;-76
2022/01/04 06:37:06;;;;;;;10.75;5.88;;;3.50;99.90;;;;;;5137278;27;20027;-76
2022/01/04 06:39:32;;;;;;;9.75;5.50;;;3.50;99.90;;;;;;5137061;27;20079;-76
2022/01/04 06:41:58;;;;;;;8.20;5.00;;;3.40;99.90;;;;;;5137342;27;20031;-76
2022/01/04 06:44:24;;;;;;;8.23;4.38;;;3.60;99.90;;;;;;5137123;27;20473;-76
2022/01/04 06:46:51;;;;;;;8.63;4.60;;;3.60;99.90;;;;;;5137115;27;20119;-75
2022/01/04 06:49:18;;;;;;;6.85;3.97;;;3.60;99.90;;;;;;5137062;27;20084;-76
2022/01/04 06:51:45;;;;;;;8.02;4.65;;;3.70;99.90;;;;;;5135754;27;20043;-79
2022/01/04 06:54:12;;;;;;;8.38;5.30;;;3.80;99.90;;;;;;5136789;27;20031;-76
2022/01/04 06:56:39;;;;;;;11.10;4.15;;;3.80;99.90;;;;;;5136917;27;20062;-77
2022/01/04 06:59:06;;;;;;;9.98;5.20;;;3.70;99.90;;;;;;5137208;27;20046;-77
2022/01/04 07:01:35;;;;;;;20.50;5.43;;;3.50;99.90;;;;;;5136415;27;20070;-77
2022/01/04 07:04:01;;;;;;;34.28;6.85;;;3.60;99.90;;;;;;5136554;27;20035;-77
2022/01/04 07:06:27;;;;;;;21.70;7.18;;;3.60;99.90;;;;;;5136763;27;20038;-77
2022/01/04 07:08:54;;;;;;;25.23;9.80;;;3.60;99.90;;;;;;5136712;27;20039;-76
2022/01/04 07:11:19;;;;;;;15.90;7.10;;;3.70;99.90;;;;;;5136059;27;20493;-77
2022/01/04 07:13:45;;;;;;;16.95;7.80;;;3.70;99.90;;;;;;5136554;27;20026;-77
2022/01/04 07:16:11;;;;;;;39.13;10.55;;;3.90;99.90;;;;;;5137070;27;20042;-77
2022/01/04 07:18:37;;;;;;;89.55;16.00;;;3.90;99.90;;;;;;5136233;27;20110;-77
2022/01/04 07:21:03;;;;;;;50.70;15.95;;;4.00;99.90;;;;;;5136144;27;20071;-76
2022/01/04 07:23:29;;;;;;;53.45;14.75;;;4.00;99.90;;;;;;5136832;27;20027;-77
2022/01/04 07:25:55;;;;;;;31.20;15.43;;;4.20;99.90;;;;;;5136088;27;20027;-76
2022/01/04 07:28:23;;;;;;;59.03;17.55;;;4.20;99.90;;;;;;5117818;27;20114;-76
2022/01/04 07:30:49;;;;;;;43.58;17.67;;;4.10;99.90;;;;;;5135853;27;20121;-76
2022/01/04 07:33:17;;;;;;;49.35;16.65;;;4.10;99.90;;;;;;5135753;27;20031;-76
2022/01/04 07:35:43;;;;;;;97.70;26.95;;;4.20;99.90;;;;;;5136315;27;20047;-77
2022/01/04 07:38:10;;;;;;;54.53;20.02;;;4.30;99.90;;;;;;5135844;27;20075;-77
2022/01/04 07:40:36;;;;;;;50.00;22.00;;;4.20;99.90;;;;;;5136386;27;20035;-77
2022/01/04 07:43:02;;;;;;;271.88;28.92;;;4.30;99.90;;;;;;5136008;27;20469;-76
2022/01/04 07:45:32;;;;;;;40.83;13.75;;;4.30;99.90;;;;;;5135669;27;20347;-77
2022/01/04 07:47:59;;;;;;;46.17;14.43;;;4.30;99.90;;;;;;5135857;27;20031;-77
2022/01/04 07:50:25;;;;;;;40.75;14.60;;;4.30;99.90;;;;;;5136295;27;20043;-77
2022/01/04 07:52:51;;;;;;;33.70;16.48;;;4.40;99.90;;;;;;5135813;27;20051;-76
2022/01/04 07:55:17;;;;;;;44.35;16.80;;;4.50;99.90;;;;;;5135852;27;20046;-77
2022/01/04 07:57:44;;;;;;;56.33;16.58;;;4.50;99.90;;;;;;5135823;27;20066;-76
2022/01/04 08:00:12;;;;;;;39.20;14.38;;;4.60;99.90;;;;;;5135465;27;20045;-77
2022/01/04 08:02:40;;;;;;;39.22;12.90;;;4.50;99.90;;;;;;5135159;27;20486;-77
2022/01/04 08:05:09;;;;;;;24.98;9.63;;;4.50;99.90;;;;;;5135350;27;20114;-77
2022/01/04 08:07:35;;;;;;;40.08;10.98;;;4.40;99.90;;;;;;5135689;27;20056;-77
2022/01/04 08:10:00;;;;;;;180.27;17.35;;;4.50;99.90;;;;;;5135677;27;20030;-77
2022/01/04 08:12:28;;;;;;;26.42;14.48;;;4.40;99.90;;;;;;5135235;27;20051;-76
2022/01/04 08:14:54;;;;;;;35.53;12.75;;;4.50;99.90;;;;;;5135237;27;20377;-76
2022/01/04 08:17:20;;;;;;;35.70;13.60;;;4.50;99.90;;;;;;5135469;27;20038;-77
2022/01/04 08:19:46;;;;;;;24.95;11.93;;;4.50;99.90;;;;;;5135197;28;20031;-76
2022/01/04 08:22:12;;;;;;;39.85;12.18;;;4.70;99.90;;;;;;5135552;28;20500;-77
2022/01/04 08:24:38;;;;;;;40.22;15.63;;;4.80;99.90;;;;;;5134537;28;20031;-77
2022/01/04 08:27:04;;;;;;;49.03;15.30;;;4.70;99.90;;;;;;5135365;28;20397;-77
2022/01/04 08:29:31;;;;;;;36.40;14.77;;;4.80;99.90;;;;;;5135246;28;20031;-77
2022/01/04 08:31:58;;;;;;;44.60;13.50;;;4.80;99.90;;;;;;5135326;28;20482;-77
2022/01/04 08:34:24;;;;;;;49.45;15.65;;;4.90;99.90;;;;;;5135133;27;20038;-77
2022/01/04 08:36:50;;;;;;;47.25;15.05;;;4.90;99.90;;;;;;5135256;28;20035;-77
2022/01/04 08:39:16;;;;;;;49.45;17.42;;;4.90;99.90;;;;;;5116653;28;20117;-77
2022/01/04 08:41:43;;;;;;;38.97;17.13;;;5.00;99.90;;;;;;5135240;28;20038;-78
2022/01/04 08:44:09;;;;;;;69.03;23.60;;;5.00;99.90;;;;;;5135300;28;20031;-77
2022/01/04 08:46:36;;;;;;;49.88;24.45;;;5.10;99.90;;;;;;5134889;27;20031;-77
2022/01/04 08:49:07;;;;;;;83.32;35.45;;;5.10;99.90;;;;;;5135236;28;20027;-77
2022/01/04 08:51:34;;;;;;;63.30;32.72;;;5.20;99.90;;;;;;5135014;27;20085;-77
2022/01/04 08:54:00;;;;;;;92.57;44.92;;;5.30;99.90;;;;;;5134788;28;20085;-78
2022/01/04 08:56:26;;;;;;;128.00;44.78;;;5.40;99.90;;;;;;5131600;27;20062;-77
2022/01/04 08:58:53;;;;;;;109.07;37.47;;;5.40;99.90;;;;;;5134968;28;20031;-78
2022/01/04 09:01:19;;;;;;;134.38;46.20;;;5.40;99.90;;;;;;5134803;28;20038;-77
2022/01/04 09:03:45;;;;;;;51.97;21.10;;;5.30;99.90;;;;;;5134614;28;20035;-77
2022/01/04 09:06:11;;;;;;;32.15;15.50;;;5.40;99.90;;;;;;5135008;28;20427;-77
2022/01/04 09:08:37;;;;;;;44.97;17.83;;;5.40;99.90;;;;;;5135096;28;20035;-77
2022/01/04 09:11:04;;;;;;;42.25;17.58;;;5.40;99.90;;;;;;5134495;28;20043;-77
2022/01/04 09:13:37;;;;;;;34.95;17.70;;;5.40;99.90;;;;;;5126726;28;20035;-77
2022/01/04 09:18:43;;;;;;;178.45;24.85;;;5.50;99.90;;;;;;5138607;27;20046;-77
2022/01/04 09:21:20;;;;;;;63.30;21.98;;;5.50;99.90;;;;;;5138827;27;20043;-77
2022/01/04 09:23:47;;;;;;;39.55;18.55;;;5.60;99.90;;;;;;5138797;27;20034;-77
2022/01/04 09:26:15;;;;;;;62.97;23.67;;;5.50;99.90;;;;;;5138666;27;20031;-77
2022/01/04 09:28:42;;;;;;;92.68;32.53;;;5.50;99.90;;;;;;5138513;27;20035;-78
2022/01/04 09:31:08;;;;;;;110.53;36.88;;;5.60;99.90;;;;;;5138529;27;20043;-76
2022/01/04 09:33:36;;;;;;;86.60;33.70;;;5.60;99.90;;;;;;5138565;27;20173;-76
2022/01/04 09:36:02;;;;;;;58.88;27.88;;;5.70;99.90;;;;;;5138207;27;20477;-77
2022/01/04 09:38:28;;;;;;;70.07;34.25;;;5.80;99.90;;;;;;5138458;27;20047;-76
2022/01/04 09:40:55;;;;;;;48.65;26.92;;;5.90;99.90;;;;;;5138506;27;20027;-76
2022/01/04 09:43:21;;;;;;;54.10;27.20;;;6.10;99.90;;;;;;5137992;27;20461;-77
2022/01/04 09:45:48;;;;;;;60.05;27.52;;;6.20;99.90;;;;;;5119796;27;20084;-77
2022/01/04 09:48:14;;;;;;;62.70;26.95;;;6.30;99.90;;;;;;5137985;27;20573;-76
2022/01/04 09:50:41;;;;;;;47.92;23.02;;;6.30;99.90;;;;;;5137875;27;20111;-77
2022/01/04 09:53:12;;;;;;;45.90;21.88;;;6.40;99.90;;;;;;5138165;27;20516;-76
2022/01/04 09:55:42;;;;;;;38.20;19.27;;;6.50;99.90;;;;;;5137910;27;20035;-77
2022/01/04 09:58:08;;;;;;;34.17;15.37;;;6.50;99.90;;;;;;5138376;27;20049;-77
2022/01/04 10:00:34;;;;;;;30.55;14.10;;;6.70;99.90;;;;;;5137733;27;20034;-77
2022/01/04 10:03:29;;;;;;;21.67;10.38;;;6.80;99.90;;;;;;5138062;27;20030;-77
2022/01/04 10:06:07;;;;;;;28.00;15.68;;;6.90;99.90;;;;;;5138046;27;20110;-77
2022/01/04 10:08:33;;;;;;;30.58;16.20;;;6.90;99.90;;;;;;5136389;27;20039;-78
2022/01/04 10:11:04;;;;;;;37.65;18.88;;;7.10;99.90;;;;;;5135700;27;20043;-77
2022/01/04 10:13:31;;;;;;;36.80;20.20;;;7.10;99.90;;;;;;5135396;27;20092;-77
2022/01/04 10:15:57;;;;;;;37.35;22.08;;;7.10;99.90;;;;;;5137307;27;20041;-77
2022/01/04 10:18:26;;;;;;;43.30;24.38;;;7.10;99.90;;;;;;5137191;27;20045;-77
2022/01/04 10:21:09;;;;;;;37.30;24.90;;;7.20;99.90;;;;;;5137671;27;20035;-77
2022/01/04 10:23:48;;;;;;;43.00;25.58;;;7.20;99.90;;;;;;5137791;27;20027;-77
2022/01/04 10:26:14;;;;;;;45.38;26.88;;;7.50;97.80;;;;;;5137422;27;20039;-77
2022/01/04 10:28:43;;;;;;;42.70;23.70;;;7.70;83.90;;;;;;5119299;27;20362;-77
2022/01/04 10:31:17;;;;;;;41.30;26.35;;;7.90;93.50;;;;;;5137669;27;20035;-77
2022/01/04 10:33:44;;;;;;;38.97;25.40;;;8.10;67.70;;;;;;5136869;27;20042;-78
2022/01/04 10:36:15;;;;;;;36.60;23.60;;;8.30;63.10;;;;;;5137346;27;20035;-76
2022/01/04 10:38:43;;;;;;;32.35;20.23;;;8.40;49.20;;;;;;5137725;27;20042;-77
2022/01/04 10:41:20;;;;;;;19.98;13.38;;;8.50;40.10;;;;;;5137741;27;20064;-77
2022/01/04 10:43:48;;;;;;;25.00;15.18;;;8.70;35.70;;;;;;5138122;27;20026;-76
2022/01/04 10:46:18;;;;;;;21.25;14.40;;;8.80;22.20;;;;;;5137369;27;20034;-75
2022/01/04 10:48:48;;;;;;;22.23;13.80;;;8.70;25.10;;;;;;5137251;27;20023;-76
2022/01/04 10:51:18;;;;;;;22.48;13.52;;;8.90;23.30;;;;;;5137262;27;20046;-77
2022/01/04 10:53:53;;;;;;;24.15;16.27;;;9.30;23.50;;;;;;5137084;27;20118;-77
2022/01/04 10:56:32;;;;;;;25.48;18.02;;;9.10;21.50;;;;;;5136890;27;20035;-77
2022/01/04 10:59:10;;;;;;;32.72;18.90;;;9.20;20.20;;;;;;5137288;27;20065;-77
2022/01/04 11:01:44;;;;;;;30.02;19.90;;;9.50;20.10;;;;;;5136402;27;20042;-77
2022/01/04 11:04:15;;;;;;;23.83;14.55;;;9.80;15.00;;;;;;5136905;27;20031;-76
2022/01/04 11:06:42;;;;;;;28.58;15.88;;;10.10;10.10;;;;;;5136719;27;20035;-77
2022/01/04 11:09:09;;;;;;;23.73;14.55;;;10.00;10.20;;;;;;5137029;27;20117;-77
2022/01/04 11:11:35;;;;;;;21.20;14.95;;;10.30;9.30;;;;;;5136920;27;20122;-77
2022/01/04 11:14:02;;;;;;;16.73;11.38;;;10.40;4.90;;;;;;5136662;27;20523;-77
2022/01/04 11:16:30;;;;;;;26.70;18.48;;;10.30;3.10;;;;;;5136506;27;20035;-77
2022/01/04 11:18:58;;;;;;;15.18;9.43;;;10.00;8.30;;;;;;5136581;27;20035;-77
2022/01/04 11:21:34;;;;;;;18.50;10.95;;;10.00;13.00;;;;;;5136825;27;20119;-78
2022/01/04 11:24:03;;;;;;;17.35;11.65;;;10.00;13.30;;;;;;5136693;27;20031;-77
2022/01/04 11:26:29;;;;;;;21.80;13.52;;;10.10;16.00;;;;;;5136544;27;20031;-76
2022/01/04 11:28:57;;;;;;;21.27;13.82;;;10.10;18.70;;;;;;5136622;27;20026;-77
2022/01/04 11:31:47;;;;;;;23.48;14.20;;;10.00;20.20;;;;;;5136437;27;20039;-77
2022/01/04 11:34:50;;;;;;;18.52;12.45;;;10.00;21.60;;;;;;5115230;27;20107;-76
2022/01/04 11:37:21;;;;;;;19.77;13.57;;;9.90;26.80;;;;;;5115215;28;20027;-78
2022/01/04 11:39:47;;;;;;;19.63;13.85;;;10.00;22.60;;;;;;5115338;28;20038;-78
2022/01/04 11:42:31;;;;;;;20.85;13.75;;;10.00;22.50;;;;;;5115058;28;20035;-77
2022/01/04 11:44:59;;;;;;;19.50;13.98;;;9.90;24.90;;;;;;5114968;28;20032;-77
2022/01/04 11:47:28;;;;;;;22.27;16.23;;;9.80;29.40;;;;;;5124536;27;20031;-77
2022/01/04 11:50:23;;;;;;;19.48;13.95;;;9.60;34.90;;;;;;5118948;27;20035;-78
2022/01/04 11:52:52;;;;;;;21.10;13.98;;;9.80;35.10;;;;;;5125642;27;20046;-77
2022/01/04 11:55:31;;;;;;;22.80;17.25;;;9.80;30.00;;;;;;5115288;28;20038;-77
2022/01/04 11:58:02;;;;;;;25.48;19.80;;;9.50;43.20;;;;;;5115519;28;20059;-77
2022/01/04 12:00:32;;;;;;;27.52;19.52;;;9.40;73.10;;;;;;5122639;27;20108;-77
2022/01/04 12:03:09;;;;;;;21.63;15.20;;;9.30;80.30;;;;;;5129837;27;20054;-77
2022/01/04 12:05:38;;;;;;;22.85;14.40;;;9.20;92.50;;;;;;5135718;27;20470;-76
2022/01/04 12:08:21;;;;;;;20.70;14.48;;;9.20;99.90;;;;;;5135705;27;20033;-77
2022/01/04 12:10:52;;;;;;;28.45;14.60;;;9.30;99.90;;;;;;5119454;27;20070;-77
2022/01/04 12:13:23;;;;;;;23.25;14.65;;;9.40;98.80;;;;;;5114565;28;20501;-77
2022/01/04 12:15:57;;;;;;;23.85;14.57;;;9.40;98.40;;;;;;5135551;27;20027;-78
2022/01/04 12:18:23;;;;;;;24.60;14.05;;;9.60;95.80;;;;;;5135331;28;20039;-78
2022/01/04 12:20:50;;;;;;;20.95;13.45;;;9.70;71.60;;;;;;5135784;28;20031;-77
2022/01/04 12:23:35;;;;;;;21.48;13.82;;;9.70;67.90;;;;;;5135846;28;20035;-78
2022/01/04 12:26:14;;;;;;;21.38;12.57;;;9.90;61.80;;;;;;5135852;28;20035;-78
2022/01/04 12:28:55;;;;;;;18.05;13.65;;;10.00;49.10;;;;;;5135486;28;20033;-77
2022/01/04 12:31:24;;;;;;;18.75;11.90;;;10.10;47.70;;;;;;5117396;28;20439;-78
2022/01/04 12:33:49;;;;;;;18.15;12.20;;;10.00;51.80;;;;;;5135442;27;20038;-78
2022/01/04 12:36:41;;;;;;;21.83;13.98;;;10.00;49.30;;;;;;5135591;27;20027;-77
2022/01/04 12:39:18;;;;;;;18.80;13.10;;;10.10;52.40;;;;;;5136024;28;20027;-78
2022/01/04 12:41:46;;;;;;;22.23;13.38;;;9.90;60.80;;;;;;5125996;28;20070;-77
2022/01/04 12:44:20;;;;;;;21.35;12.50;;;9.80;66.20;;;;;;5129347;28;20523;-76
2022/01/04 12:46:47;;;;;;;21.80;13.07;;;9.70;77.30;;;;;;5134701;28;20092;-77
2022/01/04 12:49:19;;;;;;;18.88;13.13;;;9.60;84.50;;;;;;5125909;27;20035;-78
2022/01/04 12:51:47;;;;;;;19.58;13.98;;;9.60;97.50;;;;;;5125694;27;20103;-76